Time;durP1;ratioP1;P1;durP2;ratioP2;P2;SDS_P1;SDS_P2;PMS_P1;PMS_P2;Temp;Humidity;BMP_temperature;BMP_pressure;BME280_temperature;BME280_humidity;BME280_pressure;Samples;Min_cycle;Max_cycle;Signal;HPM_P1;HPM_P2
2022/08/03 00:01:39;;;;;;;;;;;19.70;99.90;;;;;;5011127;28;19925;-62
2022/08/03 00:04:07;;;;;;;;;;;19.70;99.90;;;;;;5004517;28;20416;-62
2022/08/03 00:06:36;;;;;;;;;;;19.70;99.90;;;;;;5005182;28;19925;-61
2022/08/03 00:09:04;;;;;;;;;;;19.70;99.90;;;;;;5010081;28;19929;-62
2022/08/03 00:11:32;;;;;;;;;;;19.70;99.90;;;;;;5009460;28;19925;-60
2022/08/03 00:13:59;;;;;;;;;;;19.70;99.90;;;;;;5005639;28;19937;-62
2022/08/03 00:16:27;;;;;;;;;;;19.70;99.90;;;;;;5010023;28;20419;-61
2022/08/03 00:19:01;;;;;;;;;;;19.70;99.90;;;;;;5008593;28;19933;-61
2022/08/03 00:21:32;;;;;;;;;;;19.70;99.90;;;;;;5009683;28;20288;-61
2022/08/03 00:23:59;;;;;;;;;;;19.70;99.90;;;;;;5007029;28;19926;-62
2022/08/03 00:26:26;;;;;;;;;;;19.70;99.90;;;;;;5009468;28;19933;-60
2022/08/03 00:28:54;;;;;;;;;;;19.70;99.90;;;;;;5009722;28;19933;-62
2022/08/03 00:31:21;;;;;;;;;;;19.70;99.90;;;;;;5003170;28;19933;-59
2022/08/03 00:34:09;;;;;;;;;;;19.70;99.90;;;;;;5000429;28;19933;-61
2022/08/03 00:36:38;;;;;;;;;;;19.70;99.90;;;;;;5008721;28;19944;-60
2022/08/03 00:39:06;;;;;;;;;;;19.70;99.90;;;;;;5002474;28;19932;-61
2022/08/03 00:41:34;;;;;;;;;;;19.70;99.90;;;;;;5009230;28;19926;-62
2022/08/03 00:44:01;;;;;;;;;;;19.70;99.90;;;;;;5007234;28;19926;-63
2022/08/03 00:46:28;;;;;;;;;;;19.70;99.90;;;;;;5008650;28;19925;-61
2022/08/03 00:48:56;;;;;;;;;;;19.70;99.90;;;;;;5008548;28;19937;-62
2022/08/03 00:51:24;;;;;;;;;;;19.70;99.90;;;;;;5009226;28;19930;-63
2022/08/03 00:53:51;;;;;;;;;;;19.70;99.90;;;;;;5017633;28;19933;-64
2022/08/03 00:56:19;;;;;;;;;;;19.70;99.90;;;;;;5004954;28;20297;-62
2022/08/03 00:58:46;;;;;;;;;;;19.70;99.90;;;;;;5021811;28;20397;-61
2022/08/03 01:01:14;;;;;;;;;;;19.70;99.90;;;;;;4992254;28;20451;-60
2022/08/03 01:03:41;;;;;;;;;;;19.70;99.90;;;;;;4992016;28;20305;-61
2022/08/03 01:06:29;;;;;;;;;;;19.60;99.90;;;;;;5004903;28;19926;-61
2022/08/03 01:09:11;;;;;;;;;;;19.70;99.90;;;;;;4999492;28;19930;-61
2022/08/03 01:11:47;;;;;;;;;;;19.70;99.90;;;;;;5008022;28;19941;-60
2022/08/03 01:14:49;;;;;;;;;;;19.70;99.90;;;;;;5003910;28;20292;-61
2022/08/03 01:17:16;;;;;;;;;;;19.70;99.90;;;;;;5007729;28;19948;-60
2022/08/03 01:19:47;;;;;;;;;;;19.70;99.90;;;;;;5007955;28;19930;-61
2022/08/03 01:22:15;;;;;;;;;;;19.70;99.90;;;;;;4997649;28;20336;-61
2022/08/03 01:24:49;;;;;;;;;;;19.70;99.90;;;;;;4999736;28;20317;-61
2022/08/03 01:27:18;;;;;;;;;;;19.70;99.90;;;;;;5007482;28;19949;-60
2022/08/03 01:29:50;;;;;;;;;;;19.60;99.90;;;;;;5008635;28;19925;-61
2022/08/03 01:32:23;;;;;;;;;;;19.60;99.90;;;;;;5006144;28;19925;-62
2022/08/03 01:35:15;;;;;;;;;;;19.60;99.90;;;;;;4998967;28;19925;-61
2022/08/03 01:37:51;;;;;;;;;;;19.50;99.90;;;;;;5002643;28;19933;-60
2022/08/03 01:40:20;;;;;;;;;;;19.50;99.90;;;;;;5010517;28;19929;-62
2022/08/03 01:42:49;;;;;;;;;;;19.50;99.90;;;;;;5008712;28;19930;-62
2022/08/03 01:45:17;;;;;;;;;;;19.50;99.90;;;;;;5002047;28;19933;-60
2022/08/03 01:47:46;;;;;;;;;;;19.50;99.90;;;;;;5011343;28;19930;-62
2022/08/03 01:50:14;;;;;;;;;;;19.50;99.90;;;;;;5011891;28;19932;-63
2022/08/03 01:52:44;;;;;;;;;;;19.50;99.90;;;;;;5012014;28;19948;-62
2022/08/03 01:55:12;;;;;;;;;;;19.50;99.90;;;;;;5006352;28;19930;-61
2022/08/03 01:57:42;;;;;;;;;;;19.50;99.90;;;;;;4992322;28;19932;-61
2022/08/03 02:00:30;;;;;;;;;;;19.50;99.90;;;;;;5001095;28;20392;-63
2022/08/03 02:02:58;;;;;;;;;;;19.50;99.90;;;;;;5002032;28;19945;-61
2022/08/03 02:05:26;;;;;;;;;;;19.50;99.90;;;;;;5011761;28;19926;-63
2022/08/03 02:07:54;;;;;;;;;;;19.50;99.90;;;;;;5010092;28;20820;-63
2022/08/03 02:10:22;;;;;;;;;;;19.50;99.90;;;;;;5005529;28;19926;-61
2022/08/03 02:13:06;;;;;;;;;;;19.50;99.90;;;;;;4992310;28;20052;-61
2022/08/03 02:15:34;;;;;;;;;;;19.50;99.90;;;;;;5000228;28;19925;-63
2022/08/03 02:18:03;;;;;;;;;;;19.50;99.90;;;;;;5011588;28;20297;-61
2022/08/03 02:20:35;;;;;;;;;;;19.50;99.90;;;;;;5007760;28;19933;-60
2022/08/03 02:23:02;;;;;;;;;;;19.50;99.90;;;;;;5012601;28;19926;-64
2022/08/03 02:25:31;;;;;;;;;;;19.40;99.90;;;;;;5011726;28;19926;-62
2022/08/03 02:28:01;;;;;;;;;;;19.40;99.90;;;;;;5012391;28;19932;-63
2022/08/03 02:30:38;;;;;;;;;;;19.40;99.90;;;;;;5009913;28;20403;-65
2022/08/03 02:33:09;;;;;;;;;;;19.40;99.90;;;;;;5012234;28;19925;-64
2022/08/03 02:35:38;;;;;;;;;;;19.30;99.90;;;;;;5007200;28;19933;-64
2022/08/03 02:38:08;;;;;;;;;;;19.30;99.90;;;;;;5009103;28;19925;-63
2022/08/03 02:40:37;;;;;;;;;;;19.30;99.90;;;;;;5011221;28;20385;-62
2022/08/03 02:43:07;;;;;;;;;;;19.30;99.90;;;;;;5010343;28;19933;-61
2022/08/03 02:45:35;;;;;;;;;;;19.20;99.90;;;;;;5002881;28;19937;-63
2022/08/03 02:48:03;;;;;;;;;;;19.20;99.90;;;;;;5009465;28;20509;-61
2022/08/03 02:50:32;;;;;;;;;;;19.20;99.90;;;;;;5009367;28;20373;-62
2022/08/03 02:53:00;;;;;;;;;;;19.10;99.90;;;;;;5011173;28;19926;-65
2022/08/03 02:55:28;;;;;;;;;;;19.10;99.90;;;;;;5010864;28;20295;-62
2022/08/03 02:57:56;;;;;;;;;;;19.10;99.90;;;;;;5009274;28;19930;-64
2022/08/03 03:00:28;;;;;;;;;;;19.00;99.90;;;;;;5010421;28;19925;-61
2022/08/03 03:02:57;;;;;;;;;;;19.00;99.90;;;;;;5024497;28;19926;-62
2022/08/03 03:05:25;;;;;;;;;;;19.00;99.90;;;;;;5005237;28;19926;-62
2022/08/03 03:08:13;;;;;;;;;;;18.90;99.90;;;;;;5004629;28;20368;-64
2022/08/03 03:10:47;;;;;;;;;;;18.90;99.90;;;;;;5011190;28;19932;-63
2022/08/03 03:13:19;;;;;;;;;;;18.90;99.90;;;;;;5009872;28;19925;-63
2022/08/03 03:15:47;;;;;;;;;;;18.80;99.90;;;;;;4994050;28;19925;-64
2022/08/03 03:18:15;;;;;;;;;;;18.80;99.90;;;;;;5000192;28;20289;-62
2022/08/03 03:20:50;;;;;;;;;;;18.80;99.90;;;;;;5009866;28;19926;-65
2022/08/03 03:23:19;;;;;;;;;;;18.70;99.90;;;;;;5008229;28;19925;-62
2022/08/03 03:25:47;;;;;;;;;;;18.70;99.90;;;;;;5009146;28;19945;-60
2022/08/03 03:28:14;;;;;;;;;;;18.60;99.90;;;;;;5010872;28;20424;-61
2022/08/03 03:30:42;;;;;;;;;;;18.60;99.90;;;;;;5006503;28;19926;-61
2022/08/03 03:33:09;;;;;;;;;;;18.60;99.90;;;;;;4995847;28;19930;-61
2022/08/03 03:35:37;;;;;;;;;;;18.60;99.90;;;;;;5011157;28;20427;-61
2022/08/03 03:38:08;;;;;;;;;;;18.60;99.90;;;;;;5015419;28;19949;-63
2022/08/03 03:40:36;;;;;;;;;;;18.50;99.90;;;;;;5015419;28;19930;-60
2022/08/03 03:43:07;;;;;;;;;;;18.50;99.90;;;;;;5014545;28;19932;-62
2022/08/03 03:45:35;;;;;;;;;;;18.50;99.90;;;;;;5012954;28;19930;-61
2022/08/03 03:48:03;;;;;;;;;;;18.60;99.90;;;;;;5011238;28;20388;-62
2022/08/03 03:50:31;;;;;;;;;;;18.50;99.90;;;;;;5012134;28;19926;-60
2022/08/03 03:52:59;;;;;;;;;;;18.60;99.90;;;;;;4999612;28;19926;-61
2022/08/03 03:55:26;;;;;;;;;;;18.60;99.90;;;;;;5015404;28;19929;-61
2022/08/03 03:57:54;;;;;;;;;;;18.60;99.90;;;;;;5001731;28;19932;-61
2022/08/03 04:00:21;;;;;;;;;;;18.60;99.90;;;;;;5009958;28;20869;-60
2022/08/03 04:02:49;;;;;;;;;;;18.50;99.90;;;;;;5013335;28;19933;-61
2022/08/03 04:11:05;;;;;;;;;;;18.30;99.90;;;;;;5013867;28;19933;-59
2022/08/03 04:13:35;;;;;;;;;;;18.30;99.90;;;;;;5012685;28;19926;-61
2022/08/03 04:16:03;;;;;;;;;;;18.30;99.90;;;;;;4998290;28;19926;-62
2022/08/03 04:18:32;;;;;;;;;;;18.20;99.90;;;;;;4997735;28;20382;-60
2022/08/03 04:21:02;;;;;;;;;;;18.20;99.90;;;;;;5012527;28;20423;-61
2022/08/03 04:23:31;;;;;;;;;;;18.20;99.90;;;;;;5006356;28;19926;-61
2022/08/03 04:26:01;;;;;;;;;;;18.20;99.90;;;;;;5004695;28;19932;-63
2022/08/03 04:28:29;;;;;;;;;;;18.20;99.90;;;;;;5013304;28;19925;-60
2022/08/03 04:30:58;;;;;;;;;;;18.20;99.90;;;;;;5010470;28;19936;-64
2022/08/03 04:33:26;;;;;;;;;;;18.20;99.90;;;;;;5001982;28;19926;-63
2022/08/03 04:35:57;;;;;;;;;;;18.10;99.90;;;;;;5013148;28;19925;-62
2022/08/03 04:38:36;;;;;;;;;;;18.10;99.90;;;;;;5010887;28;19925;-60
2022/08/03 04:41:03;;;;;;;;;;;18.10;99.90;;;;;;5028820;28;19925;-61
2022/08/03 04:43:32;;;;;;;;;;;18.10;99.90;;;;;;5010689;28;19925;-60
2022/08/03 04:46:00;;;;;;;;;;;18.10;99.90;;;;;;5025704;28;20300;-65
2022/08/03 04:48:28;;;;;;;;;;;18.10;99.90;;;;;;5006159;28;19929;-61
2022/08/03 04:50:55;;;;;;;;;;;18.10;99.90;;;;;;5005808;28;20887;-61
2022/08/03 04:53:23;;;;;;;;;;;18.10;99.90;;;;;;5009135;28;19925;-60
2022/08/03 04:55:50;;;;;;;;;;;18.10;99.90;;;;;;5009065;28;20392;-62
2022/08/03 04:58:18;;;;;;;;;;;18.20;99.90;;;;;;5008548;28;20882;-64
2022/08/03 05:00:49;;;;;;;;;;;18.20;99.90;;;;;;5005965;28;19925;-61
2022/08/03 05:03:17;;;;;;;;;;;18.10;99.90;;;;;;4999405;28;20312;-60
2022/08/03 05:05:54;;;;;;;;;;;18.10;99.90;;;;;;5002981;28;19934;-60
2022/08/03 05:08:38;;;;;;;;;;;18.20;99.90;;;;;;5000281;28;19925;-64
2022/08/03 05:11:15;;;;;;;;;;;18.20;99.90;;;;;;5006478;28;19933;-65
2022/08/03 05:13:44;;;;;;;;;;;18.20;99.90;;;;;;4999329;28;19932;-62
2022/08/03 05:16:12;;;;;;;;;;;18.10;99.90;;;;;;5006270;28;19925;-61
2022/08/03 05:18:40;;;;;;;;;;;18.10;99.90;;;;;;5004538;28;19926;-62
2022/08/03 05:21:09;;;;;;;;;;;18.10;99.90;;;;;;5007881;28;19933;-63
2022/08/03 05:23:36;;;;;;;;;;;18.10;99.90;;;;;;5009165;28;19926;-65
2022/08/03 05:26:04;;;;;;;;;;;18.10;99.90;;;;;;5005977;28;19935;-61
2022/08/03 05:28:31;;;;;;;;;;;18.10;99.90;;;;;;4987616;28;20266;-60
2022/08/03 05:30:59;;;;;;;;;;;18.10;99.90;;;;;;4998164;28;19925;-66
2022/08/03 05:33:26;;;;;;;;;;;18.10;99.90;;;;;;4995369;28;19933;-61
2022/08/03 05:35:54;;;;;;;;;;;18.10;99.90;;;;;;5023073;28;19932;-67
2022/08/03 05:38:30;;;;;;;;;;;18.20;99.90;;;;;;5008394;28;19925;-66
2022/08/03 05:41:02;;;;;;;;;;;18.20;99.90;;;;;;5009165;28;19925;-61
2022/08/03 05:43:50;;;;;;;;;;;18.20;99.90;;;;;;5008044;28;20373;-64
2022/08/03 05:46:19;;;;;;;;;;;18.10;99.90;;;;;;5008783;28;20526;-64
2022/08/03 05:48:46;;;;;;;;;;;18.10;99.90;;;;;;5005542;28;19925;-65
2022/08/03 05:51:14;;;;;;;;;;;18.10;99.90;;;;;;5009237;28;19926;-68
2022/08/03 05:53:42;;;;;;;;;;;18.20;99.90;;;;;;5006825;28;19933;-64
2022/08/03 05:56:11;;;;;;;;;;;18.10;99.90;;;;;;5007990;28;19929;-67
2022/08/03 05:58:45;;;;;;;;;;;18.10;99.90;;;;;;5009286;28;19925;-64
2022/08/03 06:01:14;;;;;;;;;;;18.10;99.90;;;;;;4997285;28;19926;-61
2022/08/03 06:03:42;;;;;;;;;;;18.10;99.90;;;;;;4995166;28;19932;-63
2022/08/03 06:06:10;;;;;;;;;;;18.10;99.90;;;;;;5025359;28;19924;-61
2022/08/03 06:08:38;;;;;;;;;;;18.10;99.90;;;;;;4995961;28;20804;-61
2022/08/03 06:11:06;;;;;;;;;;;18.10;99.90;;;;;;4991439;28;19930;-61
2022/08/03 06:13:34;;;;;;;;;;;18.10;99.90;;;;;;5000407;28;19929;-61
2022/08/03 06:16:02;;;;;;;;;;;18.00;99.90;;;;;;5008867;28;19929;-63
2022/08/03 06:18:29;;;;;;;;;;;18.00;99.90;;;;;;5008083;28;20093;-61
2022/08/03 06:20:57;;;;;;;;;;;18.00;99.90;;;;;;5008496;28;19936;-61
2022/08/03 06:23:42;;;;;;;;;;;17.90;99.90;;;;;;5008003;28;19933;-61
2022/08/03 06:26:22;;;;;;;;;;;18.00;99.90;;;;;;5005177;28;19925;-64
2022/08/03 06:28:50;;;;;;;;;;;17.90;99.90;;;;;;5007111;28;19933;-58
2022/08/03 06:31:22;;;;;;;;;;;17.90;99.90;;;;;;5006802;28;19932;-59
2022/08/03 06:33:50;;;;;;;;;;;17.90;99.90;;;;;;5007827;28;20021;-57
2022/08/03 06:36:38;;;;;;;;;;;17.90;99.90;;;;;;5004688;28;20458;-58
2022/08/03 06:39:06;;;;;;;;;;;17.90;99.90;;;;;;4999535;28;19929;-60
2022/08/03 06:41:34;;;;;;;;;;;17.90;99.90;;;;;;5003152;28;19929;-62
2022/08/03 06:44:07;;;;;;;;;;;17.90;99.90;;;;;;5000881;28;19937;-59
2022/08/03 06:46:36;;;;;;;;;;;17.80;99.90;;;;;;5002502;28;19932;-60
2022/08/03 06:49:04;;;;;;;;;;;17.80;99.90;;;;;;4999859;28;20302;-60
2022/08/03 06:51:31;;;;;;;;;;;17.70;99.90;;;;;;5002490;28;20508;-60
2022/08/03 06:54:21;;;;;;;;;;;17.70;99.90;;;;;;5022073;28;20024;-61
2022/08/03 06:56:49;;;;;;;;;;;17.60;99.90;;;;;;5005988;28;20308;-60
2022/08/03 06:59:16;;;;;;;;;;;17.60;99.90;;;;;;4995497;28;19925;-60
2022/08/03 07:02:03;;;;;;;;;;;17.50;99.90;;;;;;5009892;28;20643;-61
2022/08/03 07:04:32;;;;;;;;;;;17.60;99.90;;;;;;4999985;28;19929;-63
2022/08/03 07:06:59;;;;;;;;;;;17.60;99.90;;;;;;5008492;28;19933;-64
2022/08/03 07:09:27;;;;;;;;;;;17.60;99.90;;;;;;5010623;28;19929;-65
2022/08/03 07:11:54;;;;;;;;;;;17.60;99.90;;;;;;5009828;28;19933;-65
2022/08/03 07:14:22;;;;;;;;;;;17.60;99.90;;;;;;5010550;28;19932;-66
2022/08/03 07:16:49;;;;;;;;;;;17.70;99.90;;;;;;5009299;28;19951;-65
2022/08/03 07:19:16;;;;;;;;;;;17.80;99.90;;;;;;5010063;28;19926;-63
2022/08/03 07:21:44;;;;;;;;;;;17.80;99.90;;;;;;5027134;28;19925;-65
2022/08/03 07:24:12;;;;;;;;;;;17.80;99.90;;;;;;5024938;28;19926;-66
2022/08/03 07:26:39;;;;;;;;;;;17.90;99.90;;;;;;5011513;28;19925;-64
2022/08/03 07:29:07;;;;;;;;;;;18.00;99.90;;;;;;5010749;28;19926;-63
2022/08/03 07:31:41;;;;;;;;;;;18.10;99.90;;;;;;5002312;28;19926;-62
2022/08/03 07:34:09;;;;;;;;;;;18.20;99.90;;;;;;5010385;28;20697;-62
2022/08/03 07:36:36;;;;;;;;;;;18.30;99.90;;;;;;5011542;28;19925;-61
2022/08/03 07:39:04;;;;;;;;;;;18.40;99.90;;;;;;5014984;28;19962;-61
2022/08/03 07:41:44;;;;;;;;;;;18.40;99.90;;;;;;5010346;28;19932;-62
2022/08/03 07:44:12;;;;;;;;;;;18.50;99.90;;;;;;5009505;28;19933;-61
2022/08/03 07:46:39;;;;;;;;;;;18.50;99.90;;;;;;5009310;28;19936;-63
2022/08/03 07:49:07;;;;;;;;;;;18.50;99.90;;;;;;5010562;28;20294;-65
2022/08/03 07:51:35;;;;;;;;;;;18.50;99.90;;;;;;5007650;28;19930;-62
2022/08/03 07:54:03;;;;;;;;;;;18.50;99.90;;;;;;5000517;28;19926;-61
2022/08/03 07:56:30;;;;;;;;;;;18.60;99.90;;;;;;5009724;28;19926;-59
2022/08/03 07:58:58;;;;;;;;;;;18.60;99.90;;;;;;5010453;28;19925;-61
2022/08/03 08:01:26;;;;;;;;;;;18.60;99.90;;;;;;4997858;28;19926;-63
2022/08/03 08:03:53;;;;;;;;;;;18.60;99.90;;;;;;5004258;28;19933;-61
2022/08/03 08:06:21;;;;;;;;;;;18.60;99.90;;;;;;5006784;28;20521;-60
2022/08/03 08:08:49;;;;;;;;;;;18.70;99.90;;;;;;5005950;28;19940;-61
2022/08/03 08:11:16;;;;;;;;;;;18.70;99.90;;;;;;4983131;28;20479;-63
2022/08/03 08:13:43;;;;;;;;;;;18.80;99.90;;;;;;5004298;28;19951;-64
2022/08/03 08:16:11;;;;;;;;;;;18.90;99.90;;;;;;5007371;28;20424;-60
2022/08/03 08:18:38;;;;;;;;;;;19.00;99.90;;;;;;5006251;28;19926;-64
2022/08/03 08:21:06;;;;;;;;;;;19.00;99.90;;;;;;5005763;28;19936;-62
2022/08/03 08:23:34;;;;;;;;;;;19.00;99.90;;;;;;5000825;28;19954;-61
2022/08/03 08:26:12;;;;;;;;;;;18.90;99.90;;;;;;5010195;28;20312;-62
2022/08/03 08:28:40;;;;;;;;;;;19.00;99.90;;;;;;4998523;28;19937;-62
2022/08/03 08:31:07;;;;;;;;;;;19.00;99.90;;;;;;4992194;28;19952;-62
2022/08/03 08:33:35;;;;;;;;;;;19.10;99.90;;;;;;5010786;28;19929;-61
2022/08/03 08:36:23;;;;;;;;;;;19.20;99.90;;;;;;5010465;28;19940;-60
2022/08/03 08:38:50;;;;;;;;;;;19.30;99.90;;;;;;5013494;28;20285;-60
2022/08/03 08:41:18;;;;;;;;;;;19.30;99.90;;;;;;5020172;28;19929;-60
2022/08/03 08:43:45;;;;;;;;;;;19.40;99.90;;;;;;5011007;28;19933;-59
2022/08/03 08:46:13;;;;;;;;;;;19.40;99.90;;;;;;5009582;28;19933;-60
2022/08/03 08:48:51;;;;;;;;;;;19.40;99.90;;;;;;5010966;28;19956;-61
2022/08/03 08:51:19;;;;;;;;;;;19.50;99.90;;;;;;5007769;28;19930;-60
2022/08/03 08:53:50;;;;;;;;;;;19.50;99.90;;;;;;5010523;28;19945;-60
2022/08/03 08:56:18;;;;;;;;;;;19.60;99.90;;;;;;5009739;28;19925;-60
2022/08/03 08:58:49;;;;;;;;;;;19.60;99.90;;;;;;5009445;28;19926;-59
2022/08/03 09:01:18;;;;;;;;;;;19.70;99.90;;;;;;5013424;28;19930;-60
2022/08/03 09:03:46;;;;;;;;;;;19.70;99.90;;;;;;5010414;28;19925;-60
2022/08/03 09:06:16;;;;;;;;;;;19.70;99.90;;;;;;5008895;28;19930;-61
2022/08/03 09:08:44;;;;;;;;;;;19.80;99.90;;;;;;5005644;28;20289;-61
2022/08/03 09:11:11;;;;;;;;;;;19.80;99.90;;;;;;4997350;28;19925;-60
2022/08/03 09:13:39;;;;;;;;;;;19.90;99.90;;;;;;5008432;28;19936;-60
2022/08/03 09:16:10;;;;;;;;;;;19.90;99.90;;;;;;5010510;28;19933;-61
2022/08/03 09:18:38;;;;;;;;;;;19.90;99.90;;;;;;5001810;28;19932;-62
2022/08/03 09:21:35;;;;;;;;;;;19.90;99.90;;;;;;5025697;28;20396;-60
2022/08/03 09:24:03;;;;;;;;;;;19.80;99.90;;;;;;4987020;28;19936;-62
2022/08/03 09:26:35;;;;;;;;;;;19.90;99.90;;;;;;5024766;28;20340;-64
2022/08/03 09:29:07;;;;;;;;;;;20.10;99.90;;;;;;4992962;28;19932;-61
2022/08/03 09:31:42;;;;;;;;;;;20.30;99.90;;;;;;4990469;28;19930;-62
2022/08/03 09:34:12;;;;;;;;;;;20.50;99.90;;;;;;5005799;28;19932;-64
2022/08/03 09:36:39;;;;;;;;;;;20.60;99.90;;;;;;5009376;28;19925;-60
2022/08/03 09:39:10;;;;;;;;;;;20.70;99.90;;;;;;5003222;28;20292;-62
2022/08/03 09:41:38;;;;;;;;;;;20.80;99.90;;;;;;5019961;28;20389;-62
2022/08/03 09:44:06;;;;;;;;;;;20.90;99.90;;;;;;4975154;28;19925;-64
2022/08/03 09:46:53;;;;;;;;;;;21.10;99.90;;;;;;5021551;28;20492;-61
2022/08/03 09:49:21;;;;;;;;;;;21.20;99.90;;;;;;5007443;28;19925;-63
2022/08/03 09:51:49;;;;;;;;;;;21.20;99.90;;;;;;5009717;28;19933;-61
2022/08/03 09:54:36;;;;;;;;;;;21.20;99.90;;;;;;5019825;28;19926;-60
2022/08/03 09:57:04;;;;;;;;;;;21.20;99.90;;;;;;5008617;28;19926;-60
2022/08/03 09:59:32;;;;;;;;;;;21.10;99.90;;;;;;4996299;28;19947;-60
2022/08/03 10:02:00;;;;;;;;;;;21.20;99.90;;;;;;5008080;28;20289;-65
2022/08/03 10:04:28;;;;;;;;;;;21.10;99.90;;;;;;5009119;28;19925;-62
2022/08/03 10:07:04;;;;;;;;;;;21.10;99.90;;;;;;5009958;28;19926;-61
2022/08/03 10:09:31;;;;;;;;;;;21.10;99.90;;;;;;5008994;28;19932;-63
2022/08/03 10:12:09;;;;;;;;;;;21.10;99.90;;;;;;5008280;28;19932;-64
2022/08/03 10:14:38;;;;;;;;;;;21.10;99.90;;;;;;4988238;28;19926;-62
2022/08/03 10:17:05;;;;;;;;;;;21.00;99.90;;;;;;4989717;28;19929;-62
2022/08/03 10:19:33;;;;;;;;;;;21.10;99.90;;;;;;4989730;28;19925;-61
2022/08/03 10:22:02;;;;;;;;;;;21.10;99.90;;;;;;5003344;28;19930;-60
2022/08/03 10:24:32;;;;;;;;;;;21.10;99.90;;;;;;5009073;28;19926;-65
2022/08/03 10:27:02;;;;;;;;;;;21.10;99.90;;;;;;4999620;28;19936;-63
2022/08/03 10:29:32;;;;;;;;;;;21.20;99.90;;;;;;5007544;28;20396;-62
2022/08/03 10:32:00;;;;;;;;;;;21.30;99.90;;;;;;5008880;28;19952;-63
2022/08/03 10:34:30;;;;;;;;;;;21.40;99.90;;;;;;4989662;28;19926;-61
2022/08/03 10:36:58;;;;;;;;;;;21.70;99.90;;;;;;4989950;28;19949;-64
2022/08/03 10:39:29;;;;;;;;;;;21.80;99.90;;;;;;5004572;28;19925;-63
2022/08/03 10:41:57;;;;;;;;;;;21.90;99.90;;;;;;5008403;28;19926;-60
2022/08/03 10:44:32;;;;;;;;;;;21.90;99.90;;;;;;4996247;28;19932;-61
2022/08/03 10:46:59;;;;;;;;;;;21.80;99.90;;;;;;5009053;28;19940;-60
2022/08/03 10:49:27;;;;;;;;;;;21.70;99.90;;;;;;5004484;28;19925;-62
2022/08/03 10:52:03;;;;;;;;;;;21.70;99.90;;;;;;5008932;28;19926;-61
2022/08/03 10:57:57;;;;;;;;;;;21.50;99.90;;;;;;4992845;28;19932;-60
2022/08/03 11:00:26;;;;;;;;;;;21.40;99.90;;;;;;5007499;28;20304;-61
2022/08/03 11:03:05;;;;;;;;;;;21.30;99.90;;;;;;5006463;28;19933;-60
2022/08/03 11:05:34;;;;;;;;;;;21.20;99.90;;;;;;5008333;28;20257;-60
2022/08/03 11:08:20;;;;;;;;;;;21.00;99.90;;;;;;5001638;28;19932;-60
2022/08/03 11:10:48;;;;;;;;;;;20.90;99.90;;;;;;4994382;28;19929;-61
2022/08/03 11:13:17;;;;;;;;;;;20.70;99.90;;;;;;5008548;28;19933;-62
2022/08/03 11:15:46;;;;;;;;;;;20.80;99.90;;;;;;5008046;28;20305;-62
2022/08/03 11:18:14;;;;;;;;;;;20.80;99.90;;;;;;5008535;28;19933;-61
2022/08/03 11:20:50;;;;;;;;;;;20.90;99.90;;;;;;5008723;28;20407;-62
2022/08/03 11:23:19;;;;;;;;;;;20.90;99.90;;;;;;5008699;28;19925;-59
2022/08/03 11:26:13;;;;;;;;;;;21.00;99.90;;;;;;5008748;28;19932;-64
2022/08/03 11:28:42;;;;;;;;;;;21.10;99.90;;;;;;5008470;28;19925;-63
2022/08/03 11:31:21;;;;;;;;;;;21.20;99.90;;;;;;4989832;28;19933;-61
2022/08/03 11:34:10;;;;;;;;;;;21.30;99.90;;;;;;5004099;28;19929;-62
2022/08/03 11:36:57;;;;;;;;;;;21.40;99.90;;;;;;5006924;28;19930;-60
2022/08/03 11:39:56;;;;;;;;;;;21.50;99.90;;;;;;5015266;28;19932;-61
2022/08/03 11:42:25;;;;;;;;;;;21.50;99.90;;;;;;4998494;28;20369;-61
2022/08/03 11:44:54;;;;;;;;;;;21.40;99.90;;;;;;4995111;28;20296;-61
2022/08/03 11:47:22;;;;;;;;;;;21.30;99.90;;;;;;5008320;28;19925;-60
2022/08/03 11:49:52;;;;;;;;;;;21.40;99.90;;;;;;5008902;28;20005;-60
2022/08/03 11:52:20;;;;;;;;;;;21.40;99.90;;;;;;5010016;28;20389;-62
2022/08/03 11:54:55;;;;;;;;;;;21.40;99.90;;;;;;5011986;28;20384;-62
2022/08/03 11:57:30;;;;;;;;;;;21.70;99.90;;;;;;5011944;28;20431;-61
2022/08/03 12:00:20;;;;;;;;;;;22.10;99.80;;;;;;5011486;28;19932;-62
2022/08/03 12:03:06;;;;;;;;;;;22.30;99.30;;;;;;5011314;28;19925;-65
2022/08/03 12:05:34;;;;;;;;;;;22.40;99.00;;;;;;5010572;28;19925;-61
2022/08/03 12:08:02;;;;;;;;;;;22.50;98.70;;;;;;5012117;28;19926;-64
2022/08/03 12:10:34;;;;;;;;;;;22.70;98.80;;;;;;5010554;28;19926;-61
2022/08/03 12:13:04;;;;;;;;;;;23.00;99.40;;;;;;5011727;28;19929;-60
2022/08/03 12:15:53;;;;;;;;;;;23.50;99.20;;;;;;5009014;28;19926;-59
2022/08/03 12:18:21;;;;;;;;;;;24.10;98.10;;;;;;5010058;28;19926;-61
2022/08/03 12:20:50;;;;;;;;;;;24.50;96.10;;;;;;5011567;28;20373;-61
2022/08/03 12:23:19;;;;;;;;;;;24.90;95.70;;;;;;5010046;28;19936;-62
2022/08/03 12:25:47;;;;;;;;;;;25.10;96.00;;;;;;5026184;28;19926;-60
2022/08/03 12:28:23;;;;;;;;;;;25.50;94.50;;;;;;5002919;28;19925;-60
2022/08/03 12:31:05;;;;;;;;;;;25.90;93.80;;;;;;4996540;28;19933;-61
2022/08/03 12:33:52;;;;;;;;;;;26.00;93.90;;;;;;5009832;28;19925;-60
2022/08/03 12:36:20;;;;;;;;;;;26.00;93.30;;;;;;5010343;28;20305;-62
2022/08/03 12:38:53;;;;;;;;;;;26.10;94.10;;;;;;5002036;28;19930;-62
2022/08/03 12:41:26;;;;;;;;;;;26.30;92.50;;;;;;5024677;28;19929;-64
2022/08/03 12:43:54;;;;;;;;;;;26.60;93.50;;;;;;5007706;28;19925;-62
2022/08/03 12:46:21;;;;;;;;;;;26.80;91.90;;;;;;5010344;28;19940;-62
2022/08/03 12:49:01;;;;;;;;;;;26.80;91.60;;;;;;5008874;28;19926;-61
2022/08/03 12:51:29;;;;;;;;;;;26.70;90.40;;;;;;5009515;28;19925;-61
2022/08/03 12:53:58;;;;;;;;;;;26.40;90.70;;;;;;5024470;28;19944;-64
2022/08/03 12:56:26;;;;;;;;;;;26.30;91.40;;;;;;5009706;28;19936;-62
2022/08/03 12:58:53;;;;;;;;;;;26.20;90.50;;;;;;4996962;28;19933;-61
2022/08/03 13:01:23;;;;;;;;;;;25.90;89.70;;;;;;5011965;28;19994;-61
2022/08/03 13:03:53;;;;;;;;;;;25.40;91.10;;;;;;5005346;28;19925;-62
2022/08/03 13:06:22;;;;;;;;;;;25.30;91.70;;;;;;5008110;28;19930;-61
2022/08/03 13:09:01;;;;;;;;;;;25.20;91.10;;;;;;4995428;28;19926;-62
2022/08/03 13:11:28;;;;;;;;;;;25.40;91.50;;;;;;5022029;28;19925;-62
2022/08/03 13:14:16;;;;;;;;;;;25.50;90.70;;;;;;5005130;28;19926;-58
2022/08/03 13:16:49;;;;;;;;;;;25.80;90.70;;;;;;5010205;28;20289;-59
2022/08/03 13:19:16;;;;;;;;;;;26.20;90.80;;;;;;4996883;28;19951;-61
2022/08/03 13:21:44;;;;;;;;;;;26.50;88.30;;;;;;5009646;28;19926;-66
2022/08/03 13:24:31;;;;;;;;;;;26.70;87.30;;;;;;4994576;28;19925;-63
2022/08/03 13:26:59;;;;;;;;;;;26.90;85.80;;;;;;5010330;28;19925;-62
2022/08/03 13:29:26;;;;;;;;;;;27.00;87.40;;;;;;4997361;28;19930;-61
2022/08/03 13:31:54;;;;;;;;;;;27.30;84.00;;;;;;5007936;28;19933;-62
2022/08/03 13:34:21;;;;;;;;;;;27.30;83.40;;;;;;5008868;28;19925;-61
2022/08/03 13:36:53;;;;;;;;;;;27.30;82.60;;;;;;5008549;28;20304;-62
2022/08/03 13:39:37;;;;;;;;;;;27.10;82.70;;;;;;4997803;28;19926;-61
2022/08/03 13:42:24;;;;;;;;;;;27.10;82.10;;;;;;5006706;28;19925;-62
2022/08/03 13:44:52;;;;;;;;;;;27.10;82.90;;;;;;5009925;28;19949;-61
2022/08/03 13:47:19;;;;;;;;;;;27.00;80.40;;;;;;5009189;28;20292;-61
2022/08/03 13:49:52;;;;;;;;;;;26.80;81.50;;;;;;4990620;28;20377;-62
2022/08/03 13:52:30;;;;;;;;;;;26.70;81.30;;;;;;4993476;28;20308;-65
2022/08/03 13:54:57;;;;;;;;;;;26.60;79.90;;;;;;5009174;28;19926;-65
2022/08/03 13:57:25;;;;;;;;;;;26.50;81.20;;;;;;5009433;28;19933;-63
2022/08/03 14:00:13;;;;;;;;;;;26.80;81.80;;;;;;5009730;28;19940;-64
2022/08/03 14:02:58;;;;;;;;;;;27.10;79.70;;;;;;5009417;28;19925;-66
2022/08/03 14:05:43;;;;;;;;;;;27.40;79.40;;;;;;5009183;28;19936;-63
2022/08/03 14:08:11;;;;;;;;;;;27.60;79.30;;;;;;5005204;28;19926;-66
2022/08/03 14:10:40;;;;;;;;;;;27.90;79.20;;;;;;5002983;28;19925;-64
2022/08/03 14:13:09;;;;;;;;;;;28.10;77.20;;;;;;5007869;28;19929;-66
2022/08/03 14:15:36;;;;;;;;;;;28.20;76.90;;;;;;5006450;28;19926;-65
2022/08/03 14:18:06;;;;;;;;;;;28.20;76.10;;;;;;4999733;28;19933;-66
2022/08/03 14:20:43;;;;;;;;;;;28.20;76.00;;;;;;4996391;28;19949;-63
2022/08/03 14:23:18;;;;;;;;;;;28.10;75.60;;;;;;5005808;28;19929;-63
2022/08/03 14:25:45;;;;;;;;;;;28.10;76.80;;;;;;5008672;28;19926;-62
2022/08/03 14:28:21;;;;;;;;;;;28.30;76.30;;;;;;5005418;28;19929;-65
2022/08/03 14:30:49;;;;;;;;;;;28.30;75.00;;;;;;5008295;28;19936;-66
2022/08/03 14:33:17;;;;;;;;;;;28.20;76.20;;;;;;5009203;28;19925;-63
2022/08/03 14:35:45;;;;;;;;;;;28.30;75.60;;;;;;5023100;28;19936;-63
2022/08/03 14:38:12;;;;;;;;;;;28.30;74.00;;;;;;5006952;28;20092;-61
2022/08/03 14:40:40;;;;;;;;;;;28.20;73.20;;;;;;5008611;28;19926;-61
2022/08/03 14:43:08;;;;;;;;;;;28.20;74.30;;;;;;5000643;28;19930;-61
2022/08/03 14:45:35;;;;;;;;;;;28.10;73.10;;;;;;5006883;28;20426;-62
2022/08/03 14:48:03;;;;;;;;;;;28.10;73.40;;;;;;5005288;28;20300;-61